Bellingham International Airport

KBLI · Washington, United States

METAR history KBLI · Bellingham International Airport

Below you see METARs of the last few days. Select a year to browse through older METARs, from the year 2007 onwards.

December 8, 2022

Time Code Weather Temp. Visibility Ceiling Wind METAR/SPECI
19:53
V
4 °C 10 mi 11,000 ft 170° 170° 4 kt METAR KBLI 090353Z 17004KT 10SM FEW030 SCT080 BKN110 04/03 A2989 RMK AO2 SLP130 T00440033
18:53
V
6 °C 10 mi 8,000 ft 170° 170° 5 kt METAR KBLI 090253Z 17005KT 10SM SCT025 BKN080 06/04 A2988 RMK AO2 SLP127 T00560039 50001
17:53
V
6 °C 10 mi 4,000 ft 180° 180° 5 kt METAR KBLI 090153Z 18005KT 10SM FEW010 SCT024 BKN040 06/04 A2989 RMK AO2 SLP129 T00560039
17:20
V
6 °C 10 mi 4,000 ft 180° 180° 7 kt METAR KBLI 090120Z 18007KT 10SM FEW010 SCT024 BKN040 06/04 A2989 RMK AO2 T00560039
16:53
M
6 °C 10 mi 2,200 ft 180° 180° 9 kt METAR KBLI 090053Z 18009KT 10SM SCT014 BKN022 OVC050 06/04 A2988 RMK AO2 SLP127 T00560039
15:53
M
6 °C 10 mi 1,900 ft 180° 180° 8 - 18 kt METAR KBLI 082353Z 18008G18KT 10SM BKN019 BKN025 OVC040 06/04 A2988 RMK AO2 SLP126 60000 T00610044 10072 20061 56006
14:53
M
7 °C 10 mi 1,800 ft 180° 180° 9 kt METAR KBLI 082253Z 18009KT 10SM OVC018 07/04 A2989 RMK AO2 RAB03E12 SLP129 P0000 T00670039
13:53
M
7 °C 10 mi 2,200 ft 180° 180° 9 - 17 kt METAR KBLI 082153Z 18009G17KT 160V230 10SM OVC022 07/04 A2989 RMK AO2 SLP128 T00670039
12:53
M
7 °C 10 mi 2,100 ft 180° 180° 5 kt METAR KBLI 082053Z 18005KT 10SM OVC021 07/04 A2990 RMK AO2 SLP132 T00670039 58013
12:36
M
7 °C 10 mi 2,200 ft 160° 160° 8 kt METAR KBLI 082036Z 16008KT 10SM BKN022 BKN028 OVC110 07/04 A2990 RMK AO2 T00670044
11:53
V
7 °C 10 mi 3,200 ft 160° 160° 12 kt METAR KBLI 081953Z 16012KT 10SM SCT017 BKN032 OVC110 07/04 A2991 RMK AO2 SLP136 T00670044
10:53
V
7 °C 10 mi 4,100 ft 140° 140° 8 kt METAR KBLI 081853Z 14008KT 10SM SCT019 OVC041 07/05 A2993 RMK AO2 SLP144 T00670050
10:21
V
7 °C 10 mi 4,100 ft 140° 140° 8 kt METAR KBLI 081821Z 14008KT 10SM SCT019 OVC041 07/05 A2994 RMK AO2 T00670050
10:14
M
6 °C 10 mi 1,900 ft 130° 130° 8 kt METAR KBLI 081814Z 13008KT 10SM BKN019 OVC041 06/05 A2994 RMK AO2 T00610050
09:53
V
6 °C 10 mi 4,300 ft 150° 150° 7 kt METAR KBLI 081753Z 15007KT 10SM FEW035 BKN043 06/05 A2994 RMK AO2 SLP145 60003 T00610050 10072 20050 53014
08:53
V
6 °C 10 mi - 160° 160° 7 kt METAR KBLI 081653Z 16007KT 10SM FEW035 06/04 A2992 RMK AO2 SLP138 T00560044
07:53
V
6 °C 10 mi 11,000 ft 160° 160° 9 kt METAR KBLI 081553Z 16009KT 10SM FEW060 SCT070 BKN110 06/04 A2990 RMK AO2 RAB24E50 SLP133 P0000 T00560044
06:53
V
6 °C 10 mi 7,000 ft 160° 160° 12 - 19 kt METAR KBLI 081453Z 16012G19KT 10SM FEW016 SCT021 OVC070 06/06 A2989 RMK AO2 RAE53 SLP131 P0003 60003 T00610056 53015
05:53
M
7 °C 7 mi 2,000 ft 170° 170° 11 - 25 kt METAR KBLI 081353Z AUTO 17011G25KT 7SM -RA BKN020 BKN030 OVC038 07/05 A2989 RMK AO2 PK WND 16029/1336 RAE03B16 SLP128 P0000 T00670050
05:04
V
7 °C 10 mi 4,000 ft 170° 170° 14 - 26 kt METAR KBLI 081304Z AUTO 17014G26KT 10SM SCT024 SCT029 OVC040 07/04 A2986 RMK AO2 PK WND 16026/1302 RAE03 P0000 T00670044
04:53
M
7 °C 10 mi 2,400 ft 160° 160° 15 - 25 kt METAR KBLI 081253Z AUTO 16015G25KT 10SM -RA BKN024 OVC040 07/04 A2986 RMK AO2 PK WND 15034/1228 RAB46 SLP119 P0000 T00670044
04:41
M
7 °C 10 mi 2,500 ft 160° 160° 15 - 29 kt METAR KBLI 081241Z AUTO 16015G29KT 10SM BKN025 OVC040 07/04 A2986 RMK AO2 PK WND 15034/1228 T00720039
04:06
V
7 °C 10 mi 3,200 ft 160° 160° 17 - 31 kt METAR KBLI 081206Z AUTO 16017G31KT 10SM SCT027 BKN032 OVC048 07/03 A2985 RMK AO2 PK WND 17031/1203 T00720033
03:53
M
7 °C 10 mi 2,900 ft 160° 160° 17 - 35 kt METAR KBLI 081153Z AUTO 16017G35KT 10SM BKN029 BKN039 OVC046 07/03 A2985 RMK AO2 PK WND 18039/1135 SLP116 60000 70002 T00720033 10083 20067 55013
03:43
M
8 °C 10 mi 2,900 ft 160° 160° 21 - 39 kt METAR KBLI 081143Z AUTO 16021G39KT 10SM BKN029 BKN034 OVC044 08/03 A2985 RMK AO2 PK WND 18039/1135 T00780033
02:53
V
8 °C 10 mi 3,300 ft 150° 150° 16 - 33 kt METAR KBLI 081053Z AUTO 15016G33KT 10SM OVC033 08/03 A2983 RMK AO2 PK WND 16037/1006 SLP108 T00780028
01:53
V
7 °C 10 mi 3,700 ft 130° 130° 15 - 31 kt METAR KBLI 080953Z AUTO 13015G31KT 10SM OVC037 07/02 A2985 RMK AO2 PK WND 13031/0949 RAE11 SLP116 P0000 T00720022
00:53
V
8 °C 10 mi 4,300 ft 160° 160° 14 - 23 kt METAR KBLI 080853Z AUTO 16014G23KT 10SM -RA OVC043 08/02 A2989 RMK AO2 PK WND 16030/0804 RAB06 SLP129 P0000 60000 T00780017 58023

December 7, 2022

Time Code Weather Temp. Visibility Ceiling Wind METAR/SPECI
23:53
V
8 °C 10 mi 4,200 ft 160° 160° 14 - 23 kt METAR KBLI 080753Z AUTO 16014G23KT 10SM BKN042 OVC075 08/01 A2991 RMK AO2 SLP135 T00830006 400830011
22:53
V
7 °C 10 mi 3,700 ft 150° 150° 13 - 19 kt METAR KBLI 080653Z AUTO 15013G19KT 10SM OVC037 07/01 A2994 RMK AO2 SLP148 T00720011
21:53
V
7 °C 10 mi - 140° 140° 13 - 19 kt METAR KBLI 080553Z 14013G19KT 10SM CLR 07/01 A2996 RMK AO2 SLP153 T00720011 10072 20061 57016
20:53
V
7 °C 10 mi - 140° 140° 12 - 19 kt METAR KBLI 080453Z 14012G19KT 10SM FEW055 07/01 A2997 RMK AO2 SLP159 T00670011
19:53
V
7 °C 10 mi 5,500 ft 140° 140° 8 kt METAR KBLI 080353Z 14008KT 10SM OVC055 07/02 A2999 RMK AO2 SLP163 T00670017
18:53
V
7 °C 10 mi 5,000 ft 110° 110° 6 kt METAR KBLI 080253Z 11006KT 10SM OVC050 07/02 A3000 RMK AO2 SLP169 T00670022 58012
17:53
V
6 °C 10 mi 4,900 ft 120° 120° 9 kt METAR KBLI 080153Z 12009KT 10SM OVC049 06/03 A3001 RMK AO2 SLP173 T00610028
16:53
V
6 °C 10 mi 4,800 ft 150° 150° 9 kt METAR KBLI 080053Z 15009KT 10SM BKN048 BKN060 06/03 A3003 RMK AO2 SLP179 T00610033
15:53
V
7 °C 10 mi 5,500 ft 140° 140° 8 kt METAR KBLI 072353Z 14008KT 10SM OVC055 07/03 A3004 RMK AO2 SLP181 60000 T00670033 10072 20022 56012
14:53
V
7 °C 10 mi 6,000 ft 140° 140° 9 kt METAR KBLI 072253Z 14009KT 10SM OVC060 07/04 A3004 RMK AO2 SLP182 T00720044
13:53
V
7 °C 10 mi 6,000 ft 130° 130° 6 kt METAR KBLI 072153Z 13006KT 10SM OVC060 07/01 A3006 RMK AO2 SLP188 T00720006
13:00
V
7 °C 10 mi 6,500 ft 130° 130° 8 kt METAR KBLI 072100Z 13008KT 10SM OVC065 07/M01 A3007 RMK AO2 T00671006
12:53
M
7 °C 8 mi 1,700 ft 140° 140° 9 kt METAR KBLI 072053Z 14009KT 8SM BKN017 OVC060 07/01 A3007 RMK AO2 SLP193 60000 T00670011 58024
11:53
M
4 °C 8 mi 1,700 ft 090° 090° 5 kt METAR KBLI 071953Z 09005KT 8SM BKN017 OVC060 04/01 A3011 RMK AO2 RAB09E32 SLP204 P0000 T00390011
10:53
I
3 °C 3 mi 1,700 ft Var 000° 0 kt METAR KBLI 071853Z 00000KT 3SM BR OVC017 03/01 A3014 RMK AO2 RAE43 SLP214 P0000 T00330011
09:53
I
2 °C 3 mi 2,100 ft Var 000° 0 kt METAR KBLI 071753Z 00000KT 3SM -RA BR OVC021 02/01 A3014 RMK AO2 SLP217 P0001 60002 T00220006 10022 20011 55000
08:53
I
2 °C 2 mi 2,200 ft 010° 010° 3 kt METAR KBLI 071653Z 01003KT 2SM -RA BR OVC022 02/01 A3014 RMK AO2 SLP216 P0001 T00170011
07:53
I
2 °C 2 mi 2,400 ft 010° 010° 3 kt METAR KBLI 071553Z 01003KT 2SM -RA BR OVC024 02/01 A3014 RMK AO2 RAB00E09B29 SLP216 P0000 T00170011
07:24
I
1 °C 2½ mi 2,900 ft 010° 010° 3 kt METAR KBLI 071524Z 01003KT 2 1/2SM BR OVC029 01/01 A3014 RMK AO2 RAB00E09 P0000 T00110011
06:53
I
1 °C 2 mi 3,300 ft Var 000° 0 kt METAR KBLI 071453Z 00000KT 2SM BR BKN033 OVC055 01/01 A3014 RMK AO2 SLP217 T00110011 55002
06:48
I
1 °C 2 mi 5,500 ft Var 000° 0 kt SPECI KBLI 071448Z 00000KT 2SM BR SCT033 OVC055 01/01 A3014 RMK AO2
06:14
I
1 °C 1¾ mi 6,000 ft Var 000° 0 kt METAR KBLI 071414Z AUTO 00000KT 1 3/4SM BR FEW001 SCT037 OVC060 01/01 A3014 RMK AO2 T00110011
05:53
I
1 °C 2 mi 6,000 ft 010° 010° 4 kt METAR KBLI 071353Z AUTO 01004KT 2SM BR FEW022 BKN060 01/01 A3015 RMK AO2 SLP217 T00110011
05:33
I
1 °C 1¾ mi 6,000 ft 010° 010° 3 kt METAR KBLI 071333Z AUTO 01003KT 1 3/4SM BR FEW001 BKN060 01/01 A3015 RMK AO2 T00110011
05:12
I
2 °C 2 mi 5,500 ft 010° 010° 4 kt METAR KBLI 071312Z AUTO 01004KT 2SM BR SCT001 OVC055 02/01 A3015 RMK AO2 T00170011
04:53
L
2 °C 1¾ mi 100 ft 010° 010° 3 kt METAR KBLI 071253Z AUTO 01003KT 1 3/4SM BR BKN001 OVC055 02/01 A3015 RMK AO2 SLP219 T00170011
04:06
I
2 °C 1 mi 5,500 ft 360° 360° 3 kt METAR KBLI 071206Z AUTO 36003KT 1SM R16/P6000FT BR FEW001 OVC055 02/01 A3015 RMK AO2 T00170011
04:02
L
2 °C ¾ mi 5,500 ft 020° 020° 3 kt METAR KBLI 071202Z AUTO 02003KT 3/4SM R16/P6000FT BR OVC055 02/01 A3015 RMK AO2 T00170011
03:53
I
2 °C 1 mi 5,500 ft Var 000° 0 kt METAR KBLI 071153Z AUTO 00000KT 1SM R16/P6000FT BR OVC055 02/01 A3015 RMK AO2 SLP220 60000 70002 T00170011 10028 20017 58003
03:44
I
2 °C 1½ mi 5,500 ft Var 000° 0 kt METAR KBLI 071144Z AUTO 00000KT 1 1/2SM BR OVC055 02/01 A3016 RMK AO2 T00170006
03:27
I
2 °C 2 mi 5,500 ft Var 000° 0 kt METAR KBLI 071127Z AUTO 00000KT 2SM BR SCT022 OVC055 02/01 A3016 RMK AO2 T00220006
02:53
I
2 °C 2 mi 2,300 ft Var 000° 0 kt METAR KBLI 071053Z AUTO 00000KT 2SM BR BKN023 OVC055 02/01 A3016 RMK AO2 SLP223 T00220011
02:38
I
2 °C 2 mi 2,400 ft Var 000° 0 kt METAR KBLI 071038Z AUTO 00000KT 2SM BR BKN024 OVC060 02/01 A3016 RMK AO2 T00220011
01:53
M
3 °C 3 mi 1,800 ft Var 000° 0 kt METAR KBLI 070953Z AUTO 00000KT 3SM BR BKN018 OVC024 03/01 A3016 RMK AO2 RAB01E16UPB16E19 SLP223 P0000 T00280011
00:53
I
3 °C 3 mi 1,800 ft 030° 030° 3 kt METAR KBLI 070853Z AUTO 03003KT 3SM BR OVC018 03/01 A3016 RMK AO2 RAE20B25E41 SLP223 P0000 60000 T00280011 58002
00:20
I
3 °C 3 mi 1,600 ft Var 000° 0 kt METAR KBLI 070820Z AUTO 00000KT 3SM BR OVC016 03/01 A3017 RMK AO2 RAE20 P0000 T00280011
00:10
I
3 °C 2½ mi 1,600 ft Var 000° 0 kt METAR KBLI 070810Z AUTO 00000KT 2 1/2SM -RA BR OVC016 03/01 A3017 RMK AO2 P0000 T00280011

December 6, 2022

Time Code Weather Temp. Visibility Ceiling Wind METAR/SPECI
23:53
I
3 °C 3 mi 1,600 ft Var 000° 0 kt METAR KBLI 070753Z AUTO 00000KT 3SM -RA BR OVC016 03/01 A3017 RMK AO2 RAE00B41 SLP226 P0000 T00280011 400440000
23:20
I
3 °C 3 mi 1,600 ft 010° 010° 4 kt METAR KBLI 070720Z AUTO 01004KT 3SM BR OVC016 03/01 A3017 RMK AO2 RAE00 P0000 T00280011
23:12
I
3 °C 2½ mi 1,700 ft 360° 360° 3 kt METAR KBLI 070712Z AUTO 36003KT 2 1/2SM BR OVC017 03/01 A3017 RMK AO2 RAE00 P0000 T00280011
22:53
I
3 °C 3 mi 1,900 ft 010° 010° 3 kt METAR KBLI 070653Z AUTO 01003KT 3SM -RA BR BKN019 OVC028 03/01 A3017 RMK AO2 SLP226 P0000 T00280011
22:35
I
3 °C 2½ mi 1,900 ft 350° 350° 3 kt METAR KBLI 070635Z AUTO 35003KT 2 1/2SM -RA BR BKN019 OVC029 03/01 A3017 RMK AO2 P0000 T00280011
21:53
I
3 °C 3 mi 1,900 ft 050° 050° 4 kt METAR KBLI 070553Z 05004KT 3SM -RA BR OVC019 03/01 A3016 RMK AO2 RAB48 SLP224 P0000 60000 T00280011 10044 20022 51008
20:53
M
2 °C 5 mi 2,100 ft 360° 360° 3 kt METAR KBLI 070453Z 36003KT 5SM BR BKN021 BKN030 OVC041 02/01 A3016 RMK AO2 RAE45 SLP221 P0000 T00220011
20:00
M
3 °C 6 mi 2,500 ft 360° 360° 3 kt METAR KBLI 070400Z 36003KT 6SM -RA BR BKN025 OVC034 03/01 A3015 RMK AO2 P0000 T00330011
19:53
V
3 °C 6 mi 3,400 ft Var 000° 0 kt METAR KBLI 070353Z 00000KT 6SM -RA BR SCT025 OVC034 03/01 A3015 RMK AO2 RAB12 SLP218 P0000 T00330011
18:53
M
4 °C 10 mi 2,800 ft Var 000° 0 kt METAR KBLI 070253Z 00000KT 10SM OVC028 04/01 A3014 RMK AO2 RAE0158 SLP215 P0000 60000 T00440011 51008
17:53
M
4 °C 9 mi 2,500 ft 140° 140° 7 kt METAR KBLI 070153Z 14007KT 9SM -RA OVC025 04/01 A3013 RMK AO2 RAB0057 SLP212 P0000 T00390011
16:53
M
4 °C 10 mi 2,000 ft 170° 170° 4 kt METAR KBLI 070053Z 17004KT 10SM OVC020 04/01 A3013 RMK AO2 RAE43 SLP210 P0000 T00390011
15:53
M
4 °C 10 mi 2,000 ft 170° 170° 4 kt METAR KBLI 062353Z 17004KT 10SM -RA SCT012 OVC020 04/01 A3012 RMK AO2 RAE29B51 SLP207 P0000 60002 T00390011 10044 20006 55000
14:53
M
4 °C 7 mi 1,200 ft 150° 150° 7 kt METAR KBLI 062253Z 15007KT 7SM -RA BKN012 OVC020 04/04 A3012 RMK AO2 RAB07 SLP207 P0001 T00390039
13:53
M
4 °C 10 mi 1,200 ft 160° 160° 7 kt METAR KBLI 062153Z 16007KT 10SM BKN012 OVC020 04/01 A3011 RMK AO2 RAE13 SLP205 P0000 T00440006
12:53
M
4 °C 6 mi 1,900 ft 150° 150° 7 kt METAR KBLI 062053Z 15007KT 6SM -RA SCT010 BKN019 OVC025 04/01 A3011 RMK AO2 SLP207 P0000 60001 T00440011 58002
11:53
M
2 °C 4 mi 1,400 ft Var 000° 0 kt METAR KBLI 061953Z 00000KT 4SM -RA BR FEW010 BKN014 OVC025 02/01 A3012 RMK AO2 SLP208 P0000 T00220011
10:53
I
1 °C 3 mi 1,300 ft Var 000° 0 kt METAR KBLI 061853Z 00000KT 3SM -RA BR OVC013 01/01 A3013 RMK AO2 SLP212 P0001 T00110011
09:53
M
1 °C 4 mi 1,500 ft Var 000° 0 kt METAR KBLI 061753Z 00000KT 4SM -RA BR SCT010 BKN015 OVC025 01/01 A3012 RMK AO2 RAB17FZRAE17 SLP210 P0000 60000 I1000 I6001 T00060006 10006 20000 52012
09:23
M
1 °C 4 mi 1,500 ft Var 000° 0 kt METAR KBLI 061723Z 00000KT 4SM -RA BR FEW010 BKN015 OVC025 01/01 A3012 RMK AO2 RAB17FZRAE17 P0000 I1000 T00060006
08:53
M
1 °C 5 mi 1,500 ft Var 000° 0 kt METAR KBLI 061653Z 00000KT 5SM -FZRA BR FEW010 BKN015 OVC025 01/01 A3011 RMK AO2 UPE36RAB36E37FZRAB37 SLP206 P0000 I1001 T00060006
08:43
M
1 °C 5 mi 1,500 ft Var 000° 0 kt METAR KBLI 061643Z 00000KT 5SM -FZRA BR FEW010 BKN015 OVC020 01/01 A3011 RMK AO2 UPE36RAB36E37FZRAB37 P0000 I1001 T00060006
07:53
M
0 °C 5 mi 1,500 ft Var 000° 0 kt METAR KBLI 061553Z 00000KT 5SM UP BR FEW010 BKN015 OVC025 00/00 A3010 RMK AO2 RAE36UPB36 SLP202 P0000 I1000 T00000000
06:53
I
1 °C 3 mi 1,500 ft Var 000° 0 kt METAR KBLI 061453Z 00000KT 3SM -RA BR FEW010 BKN015 OVC025 01/01 A3008 RMK AO2 RAB02E12B26 SLP198 P0000 60000 I3000 T00060006 51000
06:21
M
1 °C 4 mi 2,500 ft Var 000° 0 kt METAR KBLI 061421Z AUTO 00000KT 4SM BR SCT014 BKN025 OVC031 01/01 A3008 RMK AO2 RAB02E12 P0000 T00060006
05:53
V
1 °C 5 mi 3,700 ft Var 000° 0 kt METAR KBLI 061353Z AUTO 00000KT 5SM BR BKN037 BKN043 OVC050 01/01 A3008 RMK AO2 UPE05RAB05E43 SLP195 P0000 I1000 T00060006
04:53
V
0 °C 6 mi 3,600 ft Var 000° 0 kt METAR KBLI 061253Z AUTO 00000KT 6SM UP BR OVC036 00/00 A3009 RMK AO2 UPB45 SLP201 P0000 T00000000
04:26
V
0 °C 8 mi 3,600 ft Var 000° 0 kt METAR KBLI 061226Z AUTO 00000KT 8SM FEW021 OVC036 00/00 A3008 RMK AO2 T00000000
04:00
M
0 °C 9 mi 2,200 ft Var 000° 0 kt METAR KBLI 061200Z AUTO 00000KT 9SM BKN022 OVC029 00/M01 A3008 RMK AO2 T00001006
03:53
V
0 °C 10 mi 3,300 ft Var 000° 0 kt METAR KBLI 061153Z AUTO 00000KT 10SM SCT026 OVC033 00/M01 A3008 RMK AO2 UPE24 SLP197 P0000 60000 T00001011 10000 20000 50001
03:10
V
0 °C 9 mi 3,300 ft Var 000° 0 kt METAR KBLI 061110Z AUTO 00000KT 9SM UP OVC033 00/M02 A3009 RMK AO2 P0000 T00001022
02:53
M
0 °C 10 mi 2,800 ft Var 000° 0 kt METAR KBLI 061053Z AUTO 00000KT 10SM UP OVC028 00/M03 A3009 RMK AO2 UPB51 SLP200 P0000 T00001028
01:53
M
0 °C 10 mi 2,400 ft Var 000° 0 kt METAR KBLI 060953Z AUTO 00000KT 10SM OVC024 00/M03 A3008 RMK AO2 SLP196 T00001033

We and third parties follow your internet behavior on our website with cookies. If you continue, we assume you agree with our cookie policy.